sensor_id;sensor_type;location;lat;lon;timestamp;pressure;altitude;pressure_sealevel;temperature;humidity
57904;BME280;43720;47.462;19.030;2023-05-19T03:53:38;100990.16;;;12.05;100.00
57904;BME280;43720;47.462;19.030;2023-05-19T03:56:42;100989.53;;;12.19;100.00
57904;BME280;43720;47.462;19.030;2023-05-19T03:59:44;100991.34;;;12.22;100.00
57904;BME280;43720;47.462;19.030;2023-05-19T04:02:47;100995.69;;;12.21;100.00
57904;BME280;43720;47.462;19.030;2023-05-19T04:05:50;100997.25;;;12.12;100.00
57904;BME280;43720;47.462;19.030;2023-05-19T04:08:53;100999.94;;;12.15;100.00
57904;BME280;43720;47.462;19.030;2023-05-19T04:11:55;101001.66;;;12.13;100.00
57904;BME280;43720;47.462;19.030;2023-05-19T04:14:58;100999.00;;;12.11;100.00
57904;BME280;43720;47.462;19.030;2023-05-19T04:18:01;101004.56;;;12.30;100.00
57904;BME280;43720;47.462;19.030;2023-05-19T04:21:03;101000.00;;;12.19;100.00
57904;BME280;43720;47.462;19.030;2023-05-19T04:24:06;101011.38;;;12.18;100.00
57904;BME280;43720;47.462;19.030;2023-05-19T04:27:08;101010.53;;;12.21;100.00
57904;BME280;43720;47.462;19.030;2023-05-19T04:30:13;101007.22;;;12.31;100.00
57904;BME280;43720;47.462;19.030;2023-05-19T04:33:23;101014.31;;;12.35;100.00
57904;BME280;43720;47.462;19.030;2023-05-19T04:36:26;101016.28;;;12.50;100.00
57904;BME280;43720;47.462;19.030;2023-05-19T04:39:29;101012.94;;;12.59;100.00
57904;BME280;43720;47.462;19.030;2023-05-19T04:42:31;101019.06;;;12.59;100.00
57904;BME280;43720;47.462;19.030;2023-05-19T04:45:34;101027.94;;;12.67;100.00
57904;BME280;43720;47.462;19.030;2023-05-19T04:48:38;101024.63;;;12.79;100.00
57904;BME280;43720;47.462;19.030;2023-05-19T04:51:42;101027.34;;;12.85;100.00
57904;BME280;43720;47.462;19.030;2023-05-19T04:54:45;101029.25;;;12.94;100.00
57904;BME280;43720;47.462;19.030;2023-05-19T04:57:47;101029.25;;;12.94;100.00
57904;BME280;43720;47.462;19.030;2023-05-19T05:00:50;101027.63;;;13.04;100.00
57904;BME280;43720;47.462;19.030;2023-05-19T05:03:53;101025.84;;;13.01;100.00
57904;BME280;43720;47.462;19.030;2023-05-19T05:06:57;101021.66;;;13.15;100.00
57904;BME280;43720;47.462;19.030;2023-05-19T05:09:59;101039.22;;;13.19;100.00
57904;BME280;43720;47.462;19.030;2023-05-19T05:13:02;101032.38;;;13.28;100.00
57904;BME280;43720;47.462;19.030;2023-05-19T05:16:05;101033.34;;;13.34;100.00
57904;BME280;43720;47.462;19.030;2023-05-19T05:19:10;101033.75;;;13.63;100.00
57904;BME280;43720;47.462;19.030;2023-05-19T09:31:17;101032.66;;;18.17;90.17
57904;BME280;43720;47.462;19.030;2023-05-19T09:34:20;101035.31;;;18.17;85.88
57904;BME280;43720;47.462;19.030;2023-05-19T09:37:26;101019.44;;;18.17;85.11
57904;BME280;43720;47.462;19.030;2023-05-19T09:40:30;101026.44;;;18.24;87.58
57904;BME280;43720;47.462;19.030;2023-05-19T09:43:33;101025.50;;;18.31;86.22
57904;BME280;43720;47.462;19.030;2023-05-19T09:46:37;101022.81;;;18.34;87.36
57904;BME280;43720;47.462;19.030;2023-05-19T09:49:45;101015.78;;;18.30;87.46
57904;BME280;43720;47.462;19.030;2023-05-19T09:52:48;101016.63;;;18.35;87.75
57904;BME280;43720;47.462;19.030;2023-05-19T09:55:55;101016.63;;;18.38;88.83
57904;BME280;43720;47.462;19.030;2023-05-19T09:58:59;101009.47;;;18.49;83.06
57904;BME280;43720;47.462;19.030;2023-05-19T10:02:02;101009.34;;;18.65;81.14
57904;BME280;43720;47.462;19.030;2023-05-19T10:05:05;101000.22;;;18.99;79.94
57904;BME280;43720;47.462;19.030;2023-05-19T10:08:07;100993.78;;;19.25;78.71
57904;BME280;43720;47.462;19.030;2023-05-19T10:11:12;100986.50;;;19.44;79.30
57904;BME280;43720;47.462;19.030;2023-05-19T10:14:16;100978.25;;;19.68;78.84
57904;BME280;43720;47.462;19.030;2023-05-19T10:17:20;100976.94;;;19.97;75.01
57904;BME280;43720;47.462;19.030;2023-05-19T10:20:25;100976.84;;;20.04;77.35
57904;BME280;43720;47.462;19.030;2023-05-19T10:23:28;100982.53;;;19.77;72.08
57904;BME280;43720;47.462;19.030;2023-05-19T10:26:30;100985.56;;;19.46;73.00
57904;BME280;43720;47.462;19.030;2023-05-19T10:29:36;100987.44;;;19.38;73.54
57904;BME280;43720;47.462;19.030;2023-05-19T10:32:41;100981.94;;;19.53;74.02
57904;BME280;43720;47.462;19.030;2023-05-19T10:39:09;100980.44;;;20.00;74.47
57904;BME280;43720;47.462;19.030;2023-05-19T10:42:34;100982.41;;;20.45;74.61
57904;BME280;43720;47.462;19.030;2023-05-19T10:45:51;100971.75;;;20.46;73.53
57904;BME280;43720;47.462;19.030;2023-05-19T10:48:54;100970.47;;;20.16;70.07
57904;BME280;43720;47.462;19.030;2023-05-19T10:51:56;100965.38;;;20.02;70.47
57904;BME280;43720;47.462;19.030;2023-05-19T10:54:59;100970.97;;;19.81;71.45
57904;BME280;43720;47.462;19.030;2023-05-19T10:58:01;100969.28;;;19.77;71.97
57904;BME280;43720;47.462;19.030;2023-05-19T11:01:11;100960.25;;;19.90;73.46
57904;BME280;43720;47.462;19.030;2023-05-19T11:04:15;100952.69;;;20.21;68.91
57904;BME280;43720;47.462;19.030;2023-05-19T11:07:19;100954.66;;;20.63;66.66
57904;BME280;43720;47.462;19.030;2023-05-19T11:10:24;100939.75;;;21.47;67.37
57904;BME280;43720;47.462;19.030;2023-05-19T11:13:28;100941.97;;;22.77;60.46
57904;BME280;43720;47.462;19.030;2023-05-19T11:16:45;100934.47;;;23.83;54.32
57904;BME280;43720;47.462;19.030;2023-05-19T11:19:53;100926.72;;;24.30;53.44
57904;BME280;43720;47.462;19.030;2023-05-19T11:23:07;100934.47;;;24.39;53.31
57904;BME280;43720;47.462;19.030;2023-05-19T11:26:11;100932.81;;;25.35;48.92
57904;BME280;43720;47.462;19.030;2023-05-19T11:29:13;100938.16;;;25.59;48.10
57904;BME280;43720;47.462;19.030;2023-05-19T11:32:18;100935.75;;;25.29;48.85
57904;BME280;43720;47.462;19.030;2023-05-19T11:35:22;100934.50;;;25.85;48.73
57904;BME280;43720;47.462;19.030;2023-05-19T11:38:25;100937.91;;;25.89;51.56
57904;BME280;43720;47.462;19.030;2023-05-19T11:41:29;100928.13;;;26.31;49.06
57904;BME280;43720;47.462;19.030;2023-05-19T11:44:32;100919.19;;;26.53;46.80
57904;BME280;43720;47.462;19.030;2023-05-19T11:47:34;100930.97;;;26.90;45.15
57904;BME280;43720;47.462;19.030;2023-05-19T11:50:59;100920.66;;;26.60;46.01
57904;BME280;43720;47.462;19.030;2023-05-19T11:54:01;100930.97;;;25.14;49.00
57904;BME280;43720;47.462;19.030;2023-05-19T11:57:07;100934.31;;;24.16;50.22
57904;BME280;43720;47.462;19.030;2023-05-19T12:00:11;100929.28;;;23.49;51.66
57904;BME280;43720;47.462;19.030;2023-05-19T12:03:13;100928.66;;;23.99;52.93
57904;BME280;43720;47.462;19.030;2023-05-19T12:06:16;100929.25;;;24.08;53.08
57904;BME280;43720;47.462;19.030;2023-05-19T12:09:21;100927.56;;;24.32;51.03
57904;BME280;43720;47.462;19.030;2023-05-19T12:12:24;100914.84;;;25.39;50.75
57904;BME280;43720;47.462;19.030;2023-05-19T12:15:27;100905.88;;;26.29;47.36
57904;BME280;43720;47.462;19.030;2023-05-19T12:18:29;100906.53;;;26.77;43.99
57904;BME280;43720;47.462;19.030;2023-05-19T12:21:34;100902.13;;;26.95;43.84
57904;BME280;43720;47.462;19.030;2023-05-19T12:24:37;100888.53;;;27.76;41.34
57904;BME280;43720;47.462;19.030;2023-05-19T12:27:41;100898.91;;;28.19;40.67
57904;BME280;43720;47.462;19.030;2023-05-19T12:30:50;100897.66;;;28.26;39.53
57904;BME280;43720;47.462;19.030;2023-05-19T12:33:54;100891.56;;;27.69;39.79
57904;BME280;43720;47.462;19.030;2023-05-19T12:36:56;100885.22;;;27.32;41.54
57904;BME280;43720;47.462;19.030;2023-05-19T12:40:00;100878.78;;;27.55;42.02
57904;BME280;43720;47.462;19.030;2023-05-19T12:43:03;100875.34;;;27.33;41.74
57904;BME280;43720;47.462;19.030;2023-05-19T12:46:12;100858.69;;;28.35;41.90
57904;BME280;43720;47.462;19.030;2023-05-19T12:49:14;100866.91;;;27.97;42.00
57904;BME280;43720;47.462;19.030;2023-05-19T12:52:17;100865.44;;;28.94;39.00
57904;BME280;43720;47.462;19.030;2023-05-19T12:55:19;100860.03;;;28.61;39.30
57904;BME280;43720;47.462;19.030;2023-05-19T12:58:23;100849.94;;;27.77;41.49
57904;BME280;43720;47.462;19.030;2023-05-19T13:01:25;100864.78;;;27.09;44.01
57904;BME280;43720;47.462;19.030;2023-05-19T13:04:27;100857.63;;;26.70;42.58
57904;BME280;43720;47.462;19.030;2023-05-19T13:07:30;100871.34;;;25.56;47.77
57904;BME280;43720;47.462;19.030;2023-05-19T13:10:34;100858.69;;;24.91;47.20
57904;BME280;43720;47.462;19.030;2023-05-19T13:13:36;100860.84;;;24.29;50.49
57904;BME280;43720;47.462;19.030;2023-05-19T13:16:39;100859.91;;;24.04;52.60
57904;BME280;43720;47.462;19.030;2023-05-19T13:19:41;100847.59;;;24.00;50.74
57904;BME280;43720;47.462;19.030;2023-05-19T13:22:44;100846.28;;;23.86;51.01
57904;BME280;43720;47.462;19.030;2023-05-19T13:25:46;100842.56;;;23.90;53.52
57904;BME280;43720;47.462;19.030;2023-05-19T13:28:49;100845.44;;;23.84;52.84
57904;BME280;43720;47.462;19.030;2023-05-19T13:31:51;100840.69;;;23.92;52.71
57904;BME280;43720;47.462;19.030;2023-05-19T13:34:53;100834.34;;;23.97;52.73
57904;BME280;43720;47.462;19.030;2023-05-19T13:37:55;100827.06;;;24.02;50.85
57904;BME280;43720;47.462;19.030;2023-05-19T13:40:58;100823.41;;;23.78;51.61
57904;BME280;43720;47.462;19.030;2023-05-19T13:44:00;100825.44;;;23.70;51.77
57904;BME280;43720;47.462;19.030;2023-05-19T13:47:03;100822.44;;;23.52;52.10
57904;BME280;43720;47.462;19.030;2023-05-19T13:50:06;100826.44;;;23.09;54.46
57904;BME280;43720;47.462;19.030;2023-05-19T13:53:08;100822.84;;;22.79;55.37
57904;BME280;43720;47.462;19.030;2023-05-19T13:56:12;100819.87;;;22.59;57.07
57904;BME280;43720;47.462;19.030;2023-05-19T13:59:15;100829.09;;;22.45;58.63
57904;BME280;43720;47.462;19.030;2023-05-19T14:02:20;100818.03;;;22.28;60.56
57904;BME280;43720;47.462;19.030;2023-05-19T14:05:22;100817.84;;;22.36;57.41
57904;BME280;43720;47.462;19.030;2023-05-19T14:08:24;100809.91;;;22.34;56.34
57904;BME280;43720;47.462;19.030;2023-05-19T14:14:29;100810.25;;;22.53;54.27
57904;BME280;43720;47.462;19.030;2023-05-19T14:17:31;100818.44;;;22.77;56.95
57904;BME280;43720;47.462;19.030;2023-05-19T14:20:38;100816.16;;;22.95;55.19
57904;BME280;43720;47.462;19.030;2023-05-19T14:23:46;100806.59;;;23.18;55.75
57904;BME280;43720;47.462;19.030;2023-05-19T14:26:48;100807.81;;;23.08;54.98
57904;BME280;43720;47.462;19.030;2023-05-19T14:29:51;100804.91;;;23.15;55.83
57904;BME280;43720;47.462;19.030;2023-05-19T14:32:54;100805.00;;;23.12;53.10
57904;BME280;43720;47.462;19.030;2023-05-19T14:35:57;100801.09;;;22.94;57.88
57904;BME280;43720;47.462;19.030;2023-05-19T14:39:01;100799.56;;;22.84;54.37
57904;BME280;43720;47.462;19.030;2023-05-19T14:42:04;100805.19;;;22.75;57.70
57904;BME280;43720;47.462;19.030;2023-05-19T14:45:07;100802.28;;;22.83;57.82
57904;BME280;43720;47.462;19.030;2023-05-19T14:48:09;100801.97;;;23.23;57.22
57904;BME280;43720;47.462;19.030;2023-05-19T14:51:13;100798.88;;;23.65;52.37
57904;BME280;43720;47.462;19.030;2023-05-19T14:54:15;100789.97;;;23.92;50.15
57904;BME280;43720;47.462;19.030;2023-05-19T14:57:17;100792.06;;;24.09;48.84
